Pagrindinis puslapis
METAR-TAF:

METAR-TAF

Oro uostai :

Udontanis, Tailandas

platuma: 17-23N, ilguma: 102-48E, Aukštis: 177 m

Dabartinis oras

Ataskaita buvo paskelbta 31 minutes, ne 14:00 UTC
Vėjas 2 kt nuo kintamojo kryptimis
Temperatūra 27°C
Drėgmė 62%
Slėgis 1011 hPa
Matomumas: 9000 m

METAR: VTUD 171400Z VRB02KT 9000 NSC 27/19 Q1011 NOSIG

Laikas: 21:31 (14:31 UTC)

Prognozė

Ataskaita buvo paskelbta 3 valandos ir 31 minutes, ne 11:00 UTC
Prognozė galioja nuo 17 metu 12 UTC su 18 metu 12 UTC
Vėjas 2 kt iš Šiaurės/Šiaurės Rytų
Matomumas 10 km arba daugiau
nėra debesų žemiau 1500 m ir nėra kamuolinių lietaus debesų
Tapsmas
nuo 17 metu 21 UTC su 17 metu 23 UTC
Matomumas: 5000 m
rūkana
Tapsmas
nuo 18 metu 00 UTC su 18 metu 02 UTC
Matomumas: 9000 m
Mažai debesys ne aukštis 4000 ft

TAF: VTUD 171100Z 1712/1812 02002KT CAVOK BECMG 1721/1723 5000 BR BECMG 1800/1802 9000 NSW FEW040

Orai ataskaitas ir orų prognozės (METAR, TAF).

turimą stotys yra geltonos ir raudonos taškus žemėlapyje.

Perkelti pele per norėdami pamatyti stoties vardą.

Tada spustelėkite, norėdami matyti oro stebėjimo ir prognozės.

Norėdami pakeisti žemėlapį: spustelėkite ant žalios mygtukų su juodo kryžiaus žemyn,; žalią mygtuką su brūkšneliu, jei norite nutolinti; arba žalių rodyklių gretimoms žemėlapius.


METAR-TAF: